sensor_id;sensor_type;location;lat;lon;timestamp;pressure;altitude;pressure_sealevel;temperature;humidity
72892;BME280;61032;50.782;6.818;2023-03-16T00:00:31;100875.41;;;4.17;63.96
72892;BME280;61032;50.782;6.818;2023-03-16T00:01:31;100872.44;;;4.19;64.10
72892;BME280;61032;50.782;6.818;2023-03-16T00:02:32;100877.06;;;4.18;63.41
72892;BME280;61032;50.782;6.818;2023-03-16T00:03:33;100870.56;;;4.14;63.76
72892;BME280;61032;50.782;6.818;2023-03-16T00:04:33;100872.47;;;4.13;64.42
72892;BME280;61032;50.782;6.818;2023-03-16T00:05:37;100870.53;;;4.19;63.77
72892;BME280;61032;50.782;6.818;2023-03-16T00:06:37;100877.28;;;4.27;64.07
72892;BME280;61032;50.782;6.818;2023-03-16T00:07:37;100878.94;;;4.23;63.47
72892;BME280;61032;50.782;6.818;2023-03-16T00:08:38;100876.22;;;4.23;63.48
72892;BME280;61032;50.782;6.818;2023-03-16T00:09:39;100881.13;;;4.21;63.41
72892;BME280;61032;50.782;6.818;2023-03-16T00:10:43;100871.31;;;4.25;63.40
72892;BME280;61032;50.782;6.818;2023-03-16T00:11:46;100875.94;;;4.24;62.92
72892;BME280;61032;50.782;6.818;2023-03-16T00:12:46;100885.19;;;4.28;63.49
72892;BME280;61032;50.782;6.818;2023-03-16T00:13:46;100880.03;;;4.22;62.99
72892;BME280;61032;50.782;6.818;2023-03-16T00:14:48;100883.56;;;4.22;62.95
72892;BME280;61032;50.782;6.818;2023-03-16T00:15:52;100877.88;;;4.19;63.40
72892;BME280;61032;50.782;6.818;2023-03-16T00:16:53;100878.41;;;4.21;63.59
72892;BME280;61032;50.782;6.818;2023-03-16T00:17:53;100877.31;;;4.22;63.16
72892;BME280;61032;50.782;6.818;2023-03-16T00:18:54;100874.38;;;4.13;63.51
72892;BME280;61032;50.782;6.818;2023-03-16T00:19:55;100872.69;;;4.17;63.69
72892;BME280;61032;50.782;6.818;2023-03-16T00:21:00;100872.44;;;4.19;63.63
72892;BME280;61032;50.782;6.818;2023-03-16T00:22:03;100876.28;;;4.12;62.96
72892;BME280;61032;50.782;6.818;2023-03-16T00:23:03;100872.19;;;4.15;63.79
72892;BME280;61032;50.782;6.818;2023-03-16T00:24:04;100872.16;;;4.20;63.53
72892;BME280;61032;50.782;6.818;2023-03-16T00:25:04;100867.25;;;4.22;62.98
72892;BME280;61032;50.782;6.818;2023-03-16T00:26:07;100865.94;;;4.14;63.74
72892;BME280;61032;50.782;6.818;2023-03-16T00:27:11;100871.94;;;4.11;63.60
72892;BME280;61032;50.782;6.818;2023-03-16T00:28:15;100873.56;;;4.12;63.31
72892;BME280;61032;50.782;6.818;2023-03-16T00:29:15;100876.22;;;4.18;63.05
72892;BME280;61032;50.782;6.818;2023-03-16T00:30:15;100865.34;;;4.18;63.11
72892;BME280;61032;50.782;6.818;2023-03-16T00:31:16;100869.47;;;4.10;63.41
72892;BME280;61032;50.782;6.818;2023-03-16T00:32:19;100861.59;;;4.08;63.61
72892;BME280;61032;50.782;6.818;2023-03-16T00:33:19;100857.25;;;4.12;63.68
72892;BME280;61032;50.782;6.818;2023-03-16T00:34:20;100855.06;;;4.14;63.64
72892;BME280;61032;50.782;6.818;2023-03-16T00:35:21;100864.03;;;4.15;63.25
72892;BME280;61032;50.782;6.818;2023-03-16T00:36:22;100858.28;;;4.17;63.82
72892;BME280;61032;50.782;6.818;2023-03-16T00:37:24;100868.13;;;4.12;63.31
72892;BME280;61032;50.782;6.818;2023-03-16T00:38:25;100854.25;;;4.14;63.72
72892;BME280;61032;50.782;6.818;2023-03-16T00:39:25;100863.78;;;4.11;63.63
72892;BME280;61032;50.782;6.818;2023-03-16T00:40:25;100862.41;;;4.09;63.68
72892;BME280;61032;50.782;6.818;2023-03-16T00:41:26;100862.13;;;4.10;64.01
72892;BME280;61032;50.782;6.818;2023-03-16T00:42:28;100862.13;;;4.16;63.91
72892;BME280;61032;50.782;6.818;2023-03-16T00:43:30;100860.50;;;4.14;63.30
72892;BME280;61032;50.782;6.818;2023-03-16T00:44:30;100862.69;;;4.12;63.48
72892;BME280;61032;50.782;6.818;2023-03-16T00:45:31;100862.91;;;4.16;63.85
72892;BME280;61032;50.782;6.818;2023-03-16T00:46:31;100866.97;;;4.19;63.56
72892;BME280;61032;50.782;6.818;2023-03-16T00:47:33;100859.91;;;4.18;63.76
72892;BME280;61032;50.782;6.818;2023-03-16T00:48:34;100858.53;;;4.20;63.55
72892;BME280;61032;50.782;6.818;2023-03-16T00:49:35;100855.06;;;4.14;63.34
72892;BME280;61032;50.782;6.818;2023-03-16T00:50:36;100847.72;;;4.15;63.75
72892;BME280;61032;50.782;6.818;2023-03-16T00:51:37;100840.91;;;4.12;64.18
72892;BME280;61032;50.782;6.818;2023-03-16T00:52:37;100840.91;;;4.12;64.06
72892;BME280;61032;50.782;6.818;2023-03-16T00:53:39;100836.84;;;4.10;64.27
72892;BME280;61032;50.782;6.818;2023-03-16T00:54:45;100843.91;;;4.11;64.59
72892;BME280;61032;50.782;6.818;2023-03-16T00:55:45;100842.56;;;4.03;64.53
72892;BME280;61032;50.782;6.818;2023-03-16T00:56:46;100858.59;;;4.10;64.19
72892;BME280;61032;50.782;6.818;2023-03-16T00:57:46;100851.25;;;4.10;64.43
72892;BME280;61032;50.782;6.818;2023-03-16T00:58:46;100844.16;;;4.14;64.49
72892;BME280;61032;50.782;6.818;2023-03-16T00:59:47;100838.75;;;4.09;64.83
72892;BME280;61032;50.782;6.818;2023-03-16T01:00:48;100851.53;;;4.09;64.90
72892;BME280;61032;50.782;6.818;2023-03-16T01:01:48;100850.09;;;4.22;64.96
72892;BME280;61032;50.782;6.818;2023-03-16T01:02:48;100838.97;;;4.18;63.97
72892;BME280;61032;50.782;6.818;2023-03-16T01:03:49;100848.47;;;4.21;63.97
72892;BME280;61032;50.782;6.818;2023-03-16T01:04:50;100850.38;;;4.20;64.63
72892;BME280;61032;50.782;6.818;2023-03-16T01:05:51;100849.03;;;4.18;64.51
72892;BME280;61032;50.782;6.818;2023-03-16T01:06:51;100841.16;;;4.16;64.37
72892;BME280;61032;50.782;6.818;2023-03-16T01:07:51;100840.63;;;4.14;64.48
72892;BME280;61032;50.782;6.818;2023-03-16T01:08:52;100844.16;;;4.14;64.70
72892;BME280;61032;50.782;6.818;2023-03-16T01:09:52;100850.63;;;4.24;64.98
72892;BME280;61032;50.782;6.818;2023-03-16T01:10:53;100849.81;;;4.23;64.44
72892;BME280;61032;50.782;6.818;2023-03-16T01:11:54;100843.63;;;4.12;64.72
72892;BME280;61032;50.782;6.818;2023-03-16T01:12:54;100844.16;;;4.14;64.86
72892;BME280;61032;50.782;6.818;2023-03-16T01:13:55;100840.88;;;4.18;64.23
72892;BME280;61032;50.782;6.818;2023-03-16T01:14:55;100836.81;;;4.15;65.13
72892;BME280;61032;50.782;6.818;2023-03-16T01:15:55;100832.19;;;4.16;64.39
72892;BME280;61032;50.782;6.818;2023-03-16T01:16:56;100823.50;;;4.13;65.11
72892;BME280;61032;50.782;6.818;2023-03-16T01:17:56;100834.94;;;4.10;64.84
72892;BME280;61032;50.782;6.818;2023-03-16T01:18:56;100834.91;;;4.16;64.50
72892;BME280;61032;50.782;6.818;2023-03-16T01:19:57;100829.97;;;4.18;64.23
72892;BME280;61032;50.782;6.818;2023-03-16T01:20:57;100834.34;;;4.19;64.87
72892;BME280;61032;50.782;6.818;2023-03-16T01:21:57;100827.25;;;4.18;64.74
72892;BME280;61032;50.782;6.818;2023-03-16T01:22:57;100830.25;;;4.16;65.49
72892;BME280;61032;50.782;6.818;2023-03-16T01:23:58;100827.31;;;4.12;65.31
72892;BME280;61032;50.782;6.818;2023-03-16T01:24:58;100821.88;;;4.07;65.29
72892;BME280;61032;50.782;6.818;2023-03-16T01:25:59;100820.28;;;3.96;65.49
72892;BME280;61032;50.782;6.818;2023-03-16T01:26:59;100821.97;;;3.87;65.89
72892;BME280;61032;50.782;6.818;2023-03-16T01:28:00;100818.72;;;3.85;66.40
72892;BME280;61032;50.782;6.818;2023-03-16T01:29:00;100817.09;;;3.84;66.73
72892;BME280;61032;50.782;6.818;2023-03-16T01:30:01;100817.91;;;3.85;66.01
72892;BME280;61032;50.782;6.818;2023-03-16T01:31:05;100811.91;;;3.83;66.00
72892;BME280;61032;50.782;6.818;2023-03-16T01:32:06;100804.03;;;3.86;65.96
72892;BME280;61032;50.782;6.818;2023-03-16T01:33:06;100803.22;;;3.80;66.26
72892;BME280;61032;50.782;6.818;2023-03-16T01:34:07;100802.41;;;3.85;66.03
72892;BME280;61032;50.782;6.818;2023-03-16T01:35:08;100799.69;;;3.85;66.06
72892;BME280;61032;50.782;6.818;2023-03-16T01:36:13;100801.31;;;3.86;66.21
72892;BME280;61032;50.782;6.818;2023-03-16T01:37:14;100804.81;;;3.92;66.08
72892;BME280;61032;50.782;6.818;2023-03-16T01:38:14;100801.28;;;3.91;65.64
72892;BME280;61032;50.782;6.818;2023-03-16T01:39:15;100807.81;;;3.90;65.61
72892;BME280;61032;50.782;6.818;2023-03-16T01:40:17;100800.16;;;3.97;65.82
72892;BME280;61032;50.782;6.818;2023-03-16T01:41:17;100798.53;;;3.96;65.52
72892;BME280;61032;50.782;6.818;2023-03-16T01:42:18;100795.81;;;3.96;65.63
72892;BME280;61032;50.782;6.818;2023-03-16T01:43:20;100796.91;;;3.95;65.37
72892;BME280;61032;50.782;6.818;2023-03-16T01:44:23;100801.56;;;3.95;65.25
72892;BME280;61032;50.782;6.818;2023-03-16T01:47:04;100789.56;;;3.96;65.21
72892;BME280;61032;50.782;6.818;2023-03-16T01:48:04;100795.31;;;3.89;65.60
72892;BME280;61032;50.782;6.818;2023-03-16T01:49:30;100784.94;;;3.96;65.32
72892;BME280;61032;50.782;6.818;2023-03-16T01:50:32;100784.66;;;3.98;65.00
72892;BME280;61032;50.782;6.818;2023-03-16T01:51:37;100783.34;;;3.90;65.06
72892;BME280;61032;50.782;6.818;2023-03-16T01:52:41;100779.53;;;3.91;65.40
72892;BME280;61032;50.782;6.818;2023-03-16T01:53:44;100787.38;;;3.98;64.83
72892;BME280;61032;50.782;6.818;2023-03-16T01:54:49;100780.28;;;4.07;64.83
72892;BME280;61032;50.782;6.818;2023-03-16T01:55:50;100770.75;;;4.09;64.42
72892;BME280;61032;50.782;6.818;2023-03-16T01:57:09;100776.72;;;4.06;65.00
72892;BME280;61032;50.782;6.818;2023-03-16T01:58:11;100777.81;;;4.05;64.91
72892;BME280;61032;50.782;6.818;2023-03-16T01:59:15;100775.38;;;4.04;64.46
72892;BME280;61032;50.782;6.818;2023-03-16T02:00:18;100780.25;;;4.12;64.86
72892;BME280;61032;50.782;6.818;2023-03-16T02:01:24;100771.84;;;4.08;64.85
72892;BME280;61032;50.782;6.818;2023-03-16T02:02:29;100774.25;;;4.15;64.47
72892;BME280;61032;50.782;6.818;2023-03-16T02:03:31;100770.13;;;4.18;64.74
72892;BME280;61032;50.782;6.818;2023-03-16T02:04:40;100770.38;;;4.26;64.47
72892;BME280;61032;50.782;6.818;2023-03-16T02:07:07;100765.84;;;4.11;64.14
72892;BME280;61032;50.782;6.818;2023-03-16T02:08:09;100771.28;;;4.11;64.94
72892;BME280;61032;50.782;6.818;2023-03-16T02:09:11;100769.66;;;4.10;64.87
72892;BME280;61032;50.782;6.818;2023-03-16T02:10:14;100763.13;;;4.11;65.03
72892;BME280;61032;50.782;6.818;2023-03-16T02:11:15;100763.84;;;4.22;64.67
72892;BME280;61032;50.782;6.818;2023-03-16T02:12:21;100758.66;;;4.26;64.21
72892;BME280;61032;50.782;6.818;2023-03-16T02:13:22;100753.22;;;4.26;63.83
72892;BME280;61032;50.782;6.818;2023-03-16T02:14:24;100749.38;;;4.32;63.96
72892;BME280;61032;50.782;6.818;2023-03-16T02:15:24;100761.94;;;4.28;63.50
72892;BME280;61032;50.782;6.818;2023-03-16T02:16:26;100754.28;;;4.30;63.89
72892;BME280;61032;50.782;6.818;2023-03-16T02:17:28;100753.75;;;4.28;64.11
72892;BME280;61032;50.782;6.818;2023-03-16T02:18:30;100754.03;;;4.26;63.46
72892;BME280;61032;50.782;6.818;2023-03-16T02:19:43;100745.59;;;4.28;64.16
72892;BME280;61032;50.782;6.818;2023-03-16T02:21:06;100746.13;;;4.30;63.99
72892;BME280;61032;50.782;6.818;2023-03-16T02:22:10;100750.72;;;4.34;64.11
72892;BME280;61032;50.782;6.818;2023-03-16T02:23:14;100750.13;;;4.37;63.46
72892;BME280;61032;50.782;6.818;2023-03-16T02:24:17;100755.59;;;4.37;63.46
72892;BME280;61032;50.782;6.818;2023-03-16T02:25:18;100755.09;;;4.30;62.88
72892;BME280;61032;50.782;6.818;2023-03-16T02:26:34;100749.72;;;4.20;63.76
72892;BME280;61032;50.782;6.818;2023-03-16T02:27:56;100742.91;;;4.23;64.31
72892;BME280;61032;50.782;6.818;2023-03-16T02:29:26;100743.16;;;4.26;63.93
72892;BME280;61032;50.782;6.818;2023-03-16T02:30:29;100742.84;;;4.33;63.78
72892;BME280;61032;50.782;6.818;2023-03-16T02:31:30;100738.22;;;4.33;63.93
72892;BME280;61032;50.782;6.818;2023-03-16T02:32:31;100740.38;;;4.36;63.79
72892;BME280;61032;50.782;6.818;2023-03-16T02:33:32;100743.31;;;4.40;63.57
72892;BME280;61032;50.782;6.818;2023-03-16T02:34:34;100745.50;;;4.38;63.45
72892;BME280;61032;50.782;6.818;2023-03-16T02:35:34;100740.97;;;4.28;63.45
72892;BME280;61032;50.782;6.818;2023-03-16T02:36:36;100741.97;;;4.37;63.36
72892;BME280;61032;50.782;6.818;2023-03-16T02:37:38;100739.50;;;4.41;62.96
72892;BME280;61032;50.782;6.818;2023-03-16T02:38:39;100732.69;;;4.43;62.94
72892;BME280;61032;50.782;6.818;2023-03-16T02:39:40;100731.09;;;4.37;62.96
72892;BME280;61032;50.782;6.818;2023-03-16T02:40:45;100734.59;;;4.43;63.21
72892;BME280;61032;50.782;6.818;2023-03-16T02:41:53;100729.19;;;4.38;63.56
72892;BME280;61032;50.782;6.818;2023-03-16T02:43:01;100727.88;;;4.35;63.62
72892;BME280;61032;50.782;6.818;2023-03-16T02:44:15;100714.00;;;4.32;63.35
72892;BME280;61032;50.782;6.818;2023-03-16T02:45:17;100722.13;;;4.37;63.66
72892;BME280;61032;50.782;6.818;2023-03-16T02:46:20;100716.44;;;4.33;63.70
72892;BME280;61032;50.782;6.818;2023-03-16T02:47:38;100723.75;;;4.38;63.65
72892;BME280;61032;50.782;6.818;2023-03-16T02:48:43;100721.56;;;4.40;63.49
72892;BME280;61032;50.782;6.818;2023-03-16T02:49:45;100719.38;;;4.37;63.55
72892;BME280;61032;50.782;6.818;2023-03-16T02:50:46;100717.47;;;4.37;63.61
72892;BME280;61032;50.782;6.818;2023-03-16T02:51:48;100715.28;;;4.39;63.53
72892;BME280;61032;50.782;6.818;2023-03-16T02:52:48;100718.81;;;4.45;63.35
72892;BME280;61032;50.782;6.818;2023-03-16T02:53:48;100717.97;;;4.44;63.34
72892;BME280;61032;50.782;6.818;2023-03-16T02:54:48;100717.72;;;4.41;63.62
72892;BME280;61032;50.782;6.818;2023-03-16T02:55:49;100720.47;;;4.41;63.34
72892;BME280;61032;50.782;6.818;2023-03-16T02:56:49;100714.47;;;4.39;63.60
72892;BME280;61032;50.782;6.818;2023-03-16T02:57:50;100722.44;;;4.35;63.66
72892;BME280;61032;50.782;6.818;2023-03-16T02:58:51;100718.06;;;4.34;63.85
72892;BME280;61032;50.782;6.818;2023-03-16T02:59:51;100719.38;;;4.42;63.75
72892;BME280;61032;50.782;6.818;2023-03-16T03:00:52;100718.00;;;4.39;63.71
72892;BME280;61032;50.782;6.818;2023-03-16T03:01:52;100719.38;;;4.37;63.85
72892;BME280;61032;50.782;6.818;2023-03-16T03:02:52;100712.34;;;4.36;64.23
72892;BME280;61032;50.782;6.818;2023-03-16T03:03:52;100716.09;;;4.40;63.28
72892;BME280;61032;50.782;6.818;2023-03-16T03:04:53;100707.13;;;4.39;63.96
72892;BME280;61032;50.782;6.818;2023-03-16T03:05:53;100704.38;;;4.44;63.28
72892;BME280;61032;50.782;6.818;2023-03-16T03:06:54;100703.56;;;4.44;63.79
72892;BME280;61032;50.782;6.818;2023-03-16T03:07:54;100707.63;;;4.46;63.82
72892;BME280;61032;50.782;6.818;2023-03-16T03:08:55;100698.41;;;4.42;63.36
72892;BME280;61032;50.782;6.818;2023-03-16T03:09:55;100697.59;;;4.42;63.56
72892;BME280;61032;50.782;6.818;2023-03-16T03:10:55;100701.41;;;4.41;64.28
72892;BME280;61032;50.782;6.818;2023-03-16T03:11:56;100696.78;;;4.41;64.19
72892;BME280;61032;50.782;6.818;2023-03-16T03:12:56;100696.31;;;4.34;64.43
72892;BME280;61032;50.782;6.818;2023-03-16T03:13:57;100699.03;;;4.34;64.20
72892;BME280;61032;50.782;6.818;2023-03-16T03:14:57;100695.00;;;4.27;64.08
72892;BME280;61032;50.782;6.818;2023-03-16T03:15:58;100698.28;;;4.24;64.39
72892;BME280;61032;50.782;6.818;2023-03-16T03:16:59;100699.34;;;4.28;65.04
72892;BME280;61032;50.782;6.818;2023-03-16T03:17:59;100688.47;;;4.28;64.46
72892;BME280;61032;50.782;6.818;2023-03-16T03:18:59;100696.03;;;4.36;65.10
72892;BME280;61032;50.782;6.818;2023-03-16T03:20:00;100686.44;;;4.38;64.77
72892;BME280;61032;50.782;6.818;2023-03-16T03:21:05;100691.16;;;4.33;65.34
72892;BME280;61032;50.782;6.818;2023-03-16T03:22:06;100691.69;;;4.35;64.14
72892;BME280;61032;50.782;6.818;2023-03-16T03:23:06;100691.09;;;4.38;64.79
72892;BME280;61032;50.782;6.818;2023-03-16T03:24:07;100692.81;;;4.29;64.83
72892;BME280;61032;50.782;6.818;2023-03-16T03:25:08;100693.63;;;4.29;64.98
72892;BME280;61032;50.782;6.818;2023-03-16T03:26:08;100698.25;;;4.29;64.77
72892;BME280;61032;50.782;6.818;2023-03-16T03:27:09;100697.19;;;4.25;65.29
72892;BME280;61032;50.782;6.818;2023-03-16T03:28:10;100701.78;;;4.29;65.59
72892;BME280;61032;50.782;6.818;2023-03-16T03:29:10;100691.75;;;4.25;65.33
72892;BME280;61032;50.782;6.818;2023-03-16T03:30:14;100702.09;;;4.23;65.24
72892;BME280;61032;50.782;6.818;2023-03-16T03:31:17;100700.44;;;4.27;65.05
72892;BME280;61032;50.782;6.818;2023-03-16T03:32:17;100695.53;;;4.29;64.86
72892;BME280;61032;50.782;6.818;2023-03-16T03:33:18;100693.91;;;4.28;65.27
72892;BME280;61032;50.782;6.818;2023-03-16T03:34:18;100698.25;;;4.29;64.87
72892;BME280;61032;50.782;6.818;2023-03-16T03:35:19;100704.81;;;4.23;65.80
72892;BME280;61032;50.782;6.818;2023-03-16T03:36:20;100701.56;;;4.21;65.25
72892;BME280;61032;50.782;6.818;2023-03-16T03:37:21;100704.00;;;4.22;65.63
72892;BME280;61032;50.782;6.818;2023-03-16T03:38:22;100704.25;;;4.26;65.57
72892;BME280;61032;50.782;6.818;2023-03-16T03:39:23;100694.47;;;4.25;65.32
72892;BME280;61032;50.782;6.818;2023-03-16T03:40:23;100703.97;;;4.27;65.40
72892;BME280;61032;50.782;6.818;2023-03-16T03:41:24;100692.81;;;4.29;65.77
72892;BME280;61032;50.782;6.818;2023-03-16T03:42:25;100700.13;;;4.33;65.09
72892;BME280;61032;50.782;6.818;2023-03-16T03:43:25;100700.16;;;4.28;65.32
72892;BME280;61032;50.782;6.818;2023-03-16T03:44:25;100705.06;;;4.26;64.88
72892;BME280;61032;50.782;6.818;2023-03-16T03:45:26;100696.63;;;4.28;65.20
72892;BME280;61032;50.782;6.818;2023-03-16T03:46:27;100693.09;;;4.27;65.42
72892;BME280;61032;50.782;6.818;2023-03-16T03:47:27;100693.91;;;4.28;65.36
72892;BME280;61032;50.782;6.818;2023-03-16T03:48:27;100691.22;;;4.23;64.98
72892;BME280;61032;50.782;6.818;2023-03-16T03:49:28;100692.28;;;4.27;65.50
72892;BME280;61032;50.782;6.818;2023-03-16T03:50:28;100686.03;;;4.26;65.07
72892;BME280;61032;50.782;6.818;2023-03-16T03:51:30;100693.88;;;4.33;64.85
72892;BME280;61032;50.782;6.818;2023-03-16T03:52:30;100687.59;;;4.32;65.26
72892;BME280;61032;50.782;6.818;2023-03-16T03:53:30;100683.28;;;4.26;64.46
72892;BME280;61032;50.782;6.818;2023-03-16T03:54:31;100687.59;;;4.32;65.57
72892;BME280;61032;50.782;6.818;2023-03-16T03:55:31;100680.00;;;4.29;65.22
72892;BME280;61032;50.782;6.818;2023-03-16T03:56:32;100688.97;;;4.35;65.19
72892;BME280;61032;50.782;6.818;2023-03-16T03:57:32;100686.81;;;4.32;65.21
72892;BME280;61032;50.782;6.818;2023-03-16T03:58:32;100687.13;;;4.25;65.32
72892;BME280;61032;50.782;6.818;2023-03-16T03:59:33;100678.34;;;4.33;65.25
72892;BME280;61032;50.782;6.818;2023-03-16T04:00:34;100680.53;;;4.31;65.48
72892;BME280;61032;50.782;6.818;2023-03-16T04:01:34;100685.63;;;4.38;65.53
72892;BME280;61032;50.782;6.818;2023-03-16T04:02:35;100681.25;;;4.42;65.36
72892;BME280;61032;50.782;6.818;2023-03-16T04:03:35;100688.06;;;4.39;65.26
72892;BME280;61032;50.782;6.818;2023-03-16T04:04:36;100688.72;;;4.31;65.75
72892;BME280;61032;50.782;6.818;2023-03-16T04:05:36;100685.16;;;4.31;65.15
72892;BME280;61032;50.782;6.818;2023-03-16T04:06:36;100686.28;;;4.30;65.17
72892;BME280;61032;50.782;6.818;2023-03-16T04:07:37;100680.84;;;4.25;65.71
72892;BME280;61032;50.782;6.818;2023-03-16T04:08:37;100690.63;;;4.31;65.91
72892;BME280;61032;50.782;6.818;2023-03-16T04:09:38;100697.13;;;4.35;65.19
72892;BME280;61032;50.782;6.818;2023-03-16T04:10:38;100684.06;;;4.32;65.60
72892;BME280;61032;50.782;6.818;2023-03-16T04:11:38;100684.31;;;4.35;65.16
72892;BME280;61032;50.782;6.818;2023-03-16T04:12:39;100691.91;;;4.38;65.13
72892;BME280;61032;50.782;6.818;2023-03-16T04:13:39;100688.06;;;4.39;65.72
72892;BME280;61032;50.782;6.818;2023-03-16T04:14:40;100689.47;;;4.37;65.69
72892;BME280;61032;50.782;6.818;2023-03-16T04:15:40;100685.06;;;4.41;65.42
72892;BME280;61032;50.782;6.818;2023-03-16T04:16:40;100686.44;;;4.38;65.46
72892;BME280;61032;50.782;6.818;2023-03-16T04:17:43;100690.91;;;4.29;65.00
72892;BME280;61032;50.782;6.818;2023-03-16T04:18:43;100680.78;;;4.35;65.28
72892;BME280;61032;50.782;6.818;2023-03-16T04:19:45;100683.25;;;4.31;65.14
72892;BME280;61032;50.782;6.818;2023-03-16T04:20:45;100691.69;;;4.35;64.88
72892;BME280;61032;50.782;6.818;2023-03-16T04:21:45;100685.63;;;4.38;65.53
72892;BME280;61032;50.782;6.818;2023-03-16T04:22:46;100681.53;;;4.40;65.24
72892;BME280;61032;50.782;6.818;2023-03-16T04:23:47;100683.97;;;4.42;65.15
72892;BME280;61032;50.782;6.818;2023-03-16T04:24:48;100688.56;;;4.46;64.58
72892;BME280;61032;50.782;6.818;2023-03-16T04:25:48;100688.28;;;4.48;64.47
72892;BME280;61032;50.782;6.818;2023-03-16T04:26:48;100686.09;;;4.50;65.37
72892;BME280;61032;50.782;6.818;2023-03-16T04:27:49;100690.19;;;4.47;65.30
72892;BME280;61032;50.782;6.818;2023-03-16T04:28:50;100685.56;;;4.48;65.24
72892;BME280;61032;50.782;6.818;2023-03-16T04:29:51;100685.59;;;4.43;65.46
72892;BME280;61032;50.782;6.818;2023-03-16T04:31:00;100689.38;;;4.47;65.16
72892;BME280;61032;50.782;6.818;2023-03-16T04:32:01;100685.00;;;4.51;65.31
72892;BME280;61032;50.782;6.818;2023-03-16T04:33:01;100680.34;;;4.57;64.96
72892;BME280;61032;50.782;6.818;2023-03-16T04:34:01;100675.47;;;4.54;64.88
72892;BME280;61032;50.782;6.818;2023-03-16T04:35:03;100677.69;;;4.46;65.21
72892;BME280;61032;50.782;6.818;2023-03-16T04:36:05;100676.59;;;4.47;64.47
72892;BME280;61032;50.782;6.818;2023-03-16T04:37:05;100674.31;;;4.60;64.79
72892;BME280;61032;50.782;6.818;2023-03-16T04:38:06;100668.91;;;4.55;65.60
72892;BME280;61032;50.782;6.818;2023-03-16T04:39:07;100675.22;;;4.50;65.57
72892;BME280;61032;50.782;6.818;2023-03-16T04:40:08;100673.59;;;4.49;64.93
72892;BME280;61032;50.782;6.818;2023-03-16T04:41:15;100671.69;;;4.49;65.44
72892;BME280;61032;50.782;6.818;2023-03-16T04:42:15;100666.47;;;4.53;65.43
72892;BME280;61032;50.782;6.818;2023-03-16T04:43:15;100669.72;;;4.55;64.90
72892;BME280;61032;50.782;6.818;2023-03-16T04:44:16;100671.69;;;4.49;64.87
72892;BME280;61032;50.782;6.818;2023-03-16T04:45:16;100663.75;;;4.53;65.60
72892;BME280;61032;50.782;6.818;2023-03-16T04:46:17;100673.56;;;4.54;64.97
72892;BME280;61032;50.782;6.818;2023-03-16T04:47:17;100662.66;;;4.54;64.83
72892;BME280;61032;50.782;6.818;2023-03-16T04:48:18;100668.09;;;4.54;65.21
72892;BME280;61032;50.782;6.818;2023-03-16T04:49:18;100662.38;;;4.56;65.34
72892;BME280;61032;50.782;6.818;2023-03-16T04:50:18;100658.78;;;4.60;65.66
72892;BME280;61032;50.782;6.818;2023-03-16T04:51:19;100659.38;;;4.57;65.41
72892;BME280;61032;50.782;6.818;2023-03-16T04:52:20;100665.31;;;4.59;65.00
72892;BME280;61032;50.782;6.818;2023-03-16T04:53:20;100664.28;;;4.55;64.90
72892;BME280;61032;50.782;6.818;2023-03-16T04:54:21;100656.88;;;4.61;65.06
72892;BME280;61032;50.782;6.818;2023-03-16T04:55:21;100661.50;;;4.60;65.38
72892;BME280;61032;50.782;6.818;2023-03-16T04:56:22;100664.00;;;4.57;64.88
72892;BME280;61032;50.782;6.818;2023-03-16T04:57:23;100658.56;;;4.57;65.20
72892;BME280;61032;50.782;6.818;2023-03-16T04:58:24;100661.59;;;4.50;65.38
72892;BME280;61032;50.782;6.818;2023-03-16T04:59:25;100658.84;;;4.55;65.92
72892;BME280;61032;50.782;6.818;2023-03-16T05:00:26;100653.41;;;4.55;65.24
72892;BME280;61032;50.782;6.818;2023-03-16T05:01:27;100642.56;;;4.50;65.88
72892;BME280;61032;50.782;6.818;2023-03-16T05:02:27;100656.16;;;4.50;65.96
72892;BME280;61032;50.782;6.818;2023-03-16T05:03:27;100644.72;;;4.53;65.80
72892;BME280;61032;50.782;6.818;2023-03-16T05:04:28;100641.34;;;4.61;65.63
72892;BME280;61032;50.782;6.818;2023-03-16T05:05:28;100647.44;;;4.53;65.59
72892;BME280;61032;50.782;6.818;2023-03-16T05:06:29;100648.00;;;4.50;65.67
72892;BME280;61032;50.782;6.818;2023-03-16T05:07:30;100647.72;;;4.52;65.78
72892;BME280;61032;50.782;6.818;2023-03-16T05:08:31;100645.28;;;4.50;66.03
72892;BME280;61032;50.782;6.818;2023-03-16T05:09:31;100646.91;;;4.51;66.26
72892;BME280;61032;50.782;6.818;2023-03-16T05:10:32;100648.28;;;4.48;65.66
72892;BME280;61032;50.782;6.818;2023-03-16T05:11:34;100653.50;;;4.40;65.79
72892;BME280;61032;50.782;6.818;2023-03-16T05:12:35;100638.78;;;4.46;66.42
72892;BME280;61032;50.782;6.818;2023-03-16T05:13:35;100646.13;;;4.45;65.99
72892;BME280;61032;50.782;6.818;2023-03-16T05:14:35;100652.38;;;4.46;66.88
72892;BME280;61032;50.782;6.818;2023-03-16T05:15:36;100648.31;;;4.43;65.91
72892;BME280;61032;50.782;6.818;2023-03-16T05:16:40;100637.16;;;4.45;66.91
72892;BME280;61032;50.782;6.818;2023-03-16T05:17:41;100636.09;;;4.41;66.35
72892;BME280;61032;50.782;6.818;2023-03-16T05:18:41;100639.97;;;4.35;66.41
72892;BME280;61032;50.782;6.818;2023-03-16T05:19:41;100642.09;;;4.38;66.92
72892;BME280;61032;50.782;6.818;2023-03-16T05:20:42;100636.66;;;4.38;66.59
72892;BME280;61032;50.782;6.818;2023-03-16T05:21:42;100639.09;;;4.39;66.99
72892;BME280;61032;50.782;6.818;2023-03-16T05:22:44;100635.84;;;4.37;67.20
72892;BME280;61032;50.782;6.818;2023-03-16T05:23:45;100629.84;;;4.40;66.47
72892;BME280;61032;50.782;6.818;2023-03-16T05:24:45;100638.53;;;4.42;66.89
72892;BME280;61032;50.782;6.818;2023-03-16T05:25:46;100639.91;;;4.40;66.40
72892;BME280;61032;50.782;6.818;2023-03-16T05:26:47;100644.00;;;4.37;66.30
72892;BME280;61032;50.782;6.818;2023-03-16T05:27:50;100642.09;;;4.38;67.24
72892;BME280;61032;50.782;6.818;2023-03-16T05:28:50;100649.13;;;4.44;66.75
72892;BME280;61032;50.782;6.818;2023-03-16T05:29:51;100648.88;;;4.40;66.53